sensor_id;sensor_type;location;lat;lon;timestamp;temperature;humidity
42479;DHT22;28110;47.080;9.476;2023-01-29T00:01:16;-0.60;99.90
42479;DHT22;28110;47.080;9.476;2023-01-29T00:03:42;-0.60;99.90
42479;DHT22;28110;47.080;9.476;2023-01-29T00:06:08;-0.60;99.90
42479;DHT22;28110;47.080;9.476;2023-01-29T00:08:37;-0.70;99.90
42479;DHT22;28110;47.080;9.476;2023-01-29T00:11:07;-0.80;99.90
42479;DHT22;28110;47.080;9.476;2023-01-29T00:13:33;-0.80;99.90
42479;DHT22;28110;47.080;9.476;2023-01-29T00:15:59;-0.80;99.90
42479;DHT22;28110;47.080;9.476;2023-01-29T00:18:25;-0.90;99.90
42479;DHT22;28110;47.080;9.476;2023-01-29T00:20:51;-0.90;99.90
42479;DHT22;28110;47.080;9.476;2023-01-29T00:23:17;-0.90;99.90
42479;DHT22;28110;47.080;9.476;2023-01-29T00:25:43;-0.90;99.90
42479;DHT22;28110;47.080;9.476;2023-01-29T00:28:09;-0.90;99.90
42479;DHT22;28110;47.080;9.476;2023-01-29T00:30:36;-0.90;99.90
42479;DHT22;28110;47.080;9.476;2023-01-29T00:33:02;-0.90;99.90
42479;DHT22;28110;47.080;9.476;2023-01-29T00:35:28;-0.90;99.90
42479;DHT22;28110;47.080;9.476;2023-01-29T00:37:57;-0.90;99.90
42479;DHT22;28110;47.080;9.476;2023-01-29T00:40:24;-1.00;99.90
42479;DHT22;28110;47.080;9.476;2023-01-29T00:42:50;-0.90;99.90
42479;DHT22;28110;47.080;9.476;2023-01-29T00:45:34;-0.90;99.90
42479;DHT22;28110;47.080;9.476;2023-01-29T00:48:04;-0.90;99.90
42479;DHT22;28110;47.080;9.476;2023-01-29T00:50:30;-0.90;99.90
42479;DHT22;28110;47.080;9.476;2023-01-29T00:52:56;-1.00;99.90
42479;DHT22;28110;47.080;9.476;2023-01-29T00:55:22;-1.00;99.90
42479;DHT22;28110;47.080;9.476;2023-01-29T00:57:47;-0.90;99.90
42479;DHT22;28110;47.080;9.476;2023-01-29T01:00:15;-1.00;99.90
42479;DHT22;28110;47.080;9.476;2023-01-29T01:02:41;-1.00;99.90
42479;DHT22;28110;47.080;9.476;2023-01-29T01:05:26;-1.00;99.90
42479;DHT22;28110;47.080;9.476;2023-01-29T01:07:55;-1.10;99.90
42479;DHT22;28110;47.080;9.476;2023-01-29T01:10:32;-1.00;99.90
42479;DHT22;28110;47.080;9.476;2023-01-29T01:13:03;-1.10;99.90
42479;DHT22;28110;47.080;9.476;2023-01-29T01:15:34;-1.10;99.90
42479;DHT22;28110;47.080;9.476;2023-01-29T01:18:01;-1.10;99.90
42479;DHT22;28110;47.080;9.476;2023-01-29T01:20:30;-1.20;99.90
42479;DHT22;28110;47.080;9.476;2023-01-29T01:22:56;-1.20;99.90
42479;DHT22;28110;47.080;9.476;2023-01-29T01:25:23;-1.20;99.90
42479;DHT22;28110;47.080;9.476;2023-01-29T01:27:53;-1.20;99.90
42479;DHT22;28110;47.080;9.476;2023-01-29T01:30:19;-1.20;99.90
42479;DHT22;28110;47.080;9.476;2023-01-29T01:32:45;-1.30;99.90
42479;DHT22;28110;47.080;9.476;2023-01-29T01:35:11;-1.30;99.90
42479;DHT22;28110;47.080;9.476;2023-01-29T01:37:38;-1.30;99.90
42479;DHT22;28110;47.080;9.476;2023-01-29T01:40:06;-1.30;99.90
42479;DHT22;28110;47.080;9.476;2023-01-29T01:42:38;-1.30;99.90
42479;DHT22;28110;47.080;9.476;2023-01-29T01:45:07;-1.40;99.90
42479;DHT22;28110;47.080;9.476;2023-01-29T01:50:17;-1.40;99.90
42479;DHT22;28110;47.080;9.476;2023-01-29T01:52:48;-1.50;99.90
42479;DHT22;28110;47.080;9.476;2023-01-29T01:55:17;-1.50;99.90
42479;DHT22;28110;47.080;9.476;2023-01-29T01:57:46;-1.50;99.90
42479;DHT22;28110;47.080;9.476;2023-01-29T02:00:14;-1.60;99.90
42479;DHT22;28110;47.080;9.476;2023-01-29T02:02:42;-1.50;99.90
42479;DHT22;28110;47.080;9.476;2023-01-29T02:05:29;-1.50;99.90
42479;DHT22;28110;47.080;9.476;2023-01-29T02:08:18;-1.50;99.90
42479;DHT22;28110;47.080;9.476;2023-01-29T02:11:05;-1.60;99.90
42479;DHT22;28110;47.080;9.476;2023-01-29T02:13:31;-1.60;99.90
42479;DHT22;28110;47.080;9.476;2023-01-29T02:15:56;-1.60;99.90
42479;DHT22;28110;47.080;9.476;2023-01-29T02:18:22;-1.60;99.90
42479;DHT22;28110;47.080;9.476;2023-01-29T02:26:38;-1.70;99.90
42479;DHT22;28110;47.080;9.476;2023-01-29T02:29:09;-1.70;99.90
42479;DHT22;28110;47.080;9.476;2023-01-29T02:35:03;-1.80;99.90
42479;DHT22;28110;47.080;9.476;2023-01-29T02:40:51;-1.80;99.90
42479;DHT22;28110;47.080;9.476;2023-01-29T02:43:34;-1.90;99.90
42479;DHT22;28110;47.080;9.476;2023-01-29T02:49:07;-2.00;99.90
42479;DHT22;28110;47.080;9.476;2023-01-29T02:57:23;-2.10;99.90
42479;DHT22;28110;47.080;9.476;2023-01-29T02:59:56;-2.10;99.90
42479;DHT22;28110;47.080;9.476;2023-01-29T03:05:22;-2.10;99.90
42479;DHT22;28110;47.080;9.476;2023-01-29T03:07:53;-2.10;99.90
42479;DHT22;28110;47.080;9.476;2023-01-29T03:13:02;-2.10;99.90
42479;DHT22;28110;47.080;9.476;2023-01-29T03:15:35;-2.10;99.90
42479;DHT22;28110;47.080;9.476;2023-01-29T03:18:11;-2.10;99.90
42479;DHT22;28110;47.080;9.476;2023-01-29T03:20:41;-2.10;99.90
42479;DHT22;28110;47.080;9.476;2023-01-29T03:23:26;-2.00;99.90
42479;DHT22;28110;47.080;9.476;2023-01-29T03:26:13;-2.00;99.90
42479;DHT22;28110;47.080;9.476;2023-01-29T03:28:59;-2.00;99.90
42479;DHT22;28110;47.080;9.476;2023-01-29T03:31:45;-2.00;99.90
42479;DHT22;28110;47.080;9.476;2023-01-29T03:34:38;-1.90;99.90
42479;DHT22;28110;47.080;9.476;2023-01-29T03:39:44;-1.90;99.90
42479;DHT22;28110;47.080;9.476;2023-01-29T03:45:19;-1.90;99.90
42479;DHT22;28110;47.080;9.476;2023-01-29T03:48:15;-1.90;99.90
42479;DHT22;28110;47.080;9.476;2023-01-29T04:01:53;-2.10;99.90
42479;DHT22;28110;47.080;9.476;2023-01-29T04:04:27;-2.20;99.90
42479;DHT22;28110;47.080;9.476;2023-01-29T04:06:58;-2.20;99.90
42479;DHT22;28110;47.080;9.476;2023-01-29T04:09:31;-2.20;99.90
42479;DHT22;28110;47.080;9.476;2023-01-29T04:12:04;-2.20;99.90
42479;DHT22;28110;47.080;9.476;2023-01-29T04:14:33;-2.20;99.90
42479;DHT22;28110;47.080;9.476;2023-01-29T04:17:01;-2.20;99.90
42479;DHT22;28110;47.080;9.476;2023-01-29T04:19:28;-2.20;99.90
42479;DHT22;28110;47.080;9.476;2023-01-29T04:22:06;-2.20;99.90
42479;DHT22;28110;47.080;9.476;2023-01-29T04:24:34;-2.20;99.90
42479;DHT22;28110;47.080;9.476;2023-01-29T04:37:34;-2.20;99.90
42479;DHT22;28110;47.080;9.476;2023-01-29T04:40:27;-2.30;99.90
42479;DHT22;28110;47.080;9.476;2023-01-29T04:43:07;-2.20;99.90
42479;DHT22;28110;47.080;9.476;2023-01-29T04:56:25;-2.30;99.90
42479;DHT22;28110;47.080;9.476;2023-01-29T04:59:16;-2.30;99.90
42479;DHT22;28110;47.080;9.476;2023-01-29T05:01:43;-2.40;99.90
42479;DHT22;28110;47.080;9.476;2023-01-29T05:04:13;-2.40;99.90
42479;DHT22;28110;47.080;9.476;2023-01-29T05:06:39;-2.40;99.90
42479;DHT22;28110;47.080;9.476;2023-01-29T05:09:06;-2.40;99.90
42479;DHT22;28110;47.080;9.476;2023-01-29T05:11:34;-2.40;99.90
42479;DHT22;28110;47.080;9.476;2023-01-29T05:14:01;-2.30;99.90
42479;DHT22;28110;47.080;9.476;2023-01-29T05:16:33;-2.10;99.90
42479;DHT22;28110;47.080;9.476;2023-01-29T05:19:08;-1.90;99.90
42479;DHT22;28110;47.080;9.476;2023-01-29T05:21:33;-1.70;99.90
42479;DHT22;28110;47.080;9.476;2023-01-29T05:24:15;-1.60;99.90
42479;DHT22;28110;47.080;9.476;2023-01-29T05:26:42;-1.60;99.90
42479;DHT22;28110;47.080;9.476;2023-01-29T05:29:27;-1.60;99.90
42479;DHT22;28110;47.080;9.476;2023-01-29T05:31:53;-1.50;99.90
42479;DHT22;28110;47.080;9.476;2023-01-29T05:34:18;-1.50;99.90
42479;DHT22;28110;47.080;9.476;2023-01-29T05:36:44;-1.40;99.90
42479;DHT22;28110;47.080;9.476;2023-01-29T05:39:10;-1.40;99.90
42479;DHT22;28110;47.080;9.476;2023-01-29T05:41:35;-1.30;99.90
42479;DHT22;28110;47.080;9.476;2023-01-29T05:44:01;-1.20;99.90
42479;DHT22;28110;47.080;9.476;2023-01-29T05:46:26;-1.30;99.90
42479;DHT22;28110;47.080;9.476;2023-01-29T05:48:52;-1.20;99.90
42479;DHT22;28110;47.080;9.476;2023-01-29T05:51:17;-1.20;99.90
42479;DHT22;28110;47.080;9.476;2023-01-29T05:53:43;-1.20;99.90
42479;DHT22;28110;47.080;9.476;2023-01-29T05:56:08;-1.30;99.90
42479;DHT22;28110;47.080;9.476;2023-01-29T05:58:34;-1.30;99.90
42479;DHT22;28110;47.080;9.476;2023-01-29T06:01:18;-1.30;99.90
42479;DHT22;28110;47.080;9.476;2023-01-29T06:03:44;-1.30;99.90
42479;DHT22;28110;47.080;9.476;2023-01-29T06:06:10;-1.30;99.90
42479;DHT22;28110;47.080;9.476;2023-01-29T06:08:36;-1.20;99.90
42479;DHT22;28110;47.080;9.476;2023-01-29T06:11:02;-1.20;99.90
42479;DHT22;28110;47.080;9.476;2023-01-29T06:13:29;-1.20;99.90
42479;DHT22;28110;47.080;9.476;2023-01-29T06:15:54;-1.20;99.90
42479;DHT22;28110;47.080;9.476;2023-01-29T06:18:20;-1.10;99.90
42479;DHT22;28110;47.080;9.476;2023-01-29T06:20:45;-1.00;99.90
42479;DHT22;28110;47.080;9.476;2023-01-29T06:23:11;-1.00;99.90
42479;DHT22;28110;47.080;9.476;2023-01-29T06:25:36;-1.00;99.90
42479;DHT22;28110;47.080;9.476;2023-01-29T06:28:02;-1.10;99.90
42479;DHT22;28110;47.080;9.476;2023-01-29T06:30:28;-1.10;99.90
42479;DHT22;28110;47.080;9.476;2023-01-29T06:32:57;-1.00;99.90
42479;DHT22;28110;47.080;9.476;2023-01-29T06:35:24;-1.00;99.90
42479;DHT22;28110;47.080;9.476;2023-01-29T06:37:49;-1.00;99.90
42479;DHT22;28110;47.080;9.476;2023-01-29T06:40:15;-1.00;99.90
42479;DHT22;28110;47.080;9.476;2023-01-29T06:42:40;-1.00;99.90
42479;DHT22;28110;47.080;9.476;2023-01-29T06:45:06;-0.90;99.90
42479;DHT22;28110;47.080;9.476;2023-01-29T06:47:32;-1.00;99.90
42479;DHT22;28110;47.080;9.476;2023-01-29T06:49:57;-1.00;99.90
42479;DHT22;28110;47.080;9.476;2023-01-29T06:52:23;-1.00;99.90
42479;DHT22;28110;47.080;9.476;2023-01-29T06:54:56;-1.00;99.90
42479;DHT22;28110;47.080;9.476;2023-01-29T06:57:22;-1.10;99.90
42479;DHT22;28110;47.080;9.476;2023-01-29T06:59:47;-1.10;99.90
42479;DHT22;28110;47.080;9.476;2023-01-29T07:02:13;-1.10;99.90
42479;DHT22;28110;47.080;9.476;2023-01-29T07:04:39;-1.10;99.90
42479;DHT22;28110;47.080;9.476;2023-01-29T07:07:06;-1.10;99.90
42479;DHT22;28110;47.080;9.476;2023-01-29T07:09:40;-1.20;99.90
42479;DHT22;28110;47.080;9.476;2023-01-29T07:12:07;-1.20;99.90
42479;DHT22;28110;47.080;9.476;2023-01-29T07:14:32;-1.20;99.90
42479;DHT22;28110;47.080;9.476;2023-01-29T07:16:58;-1.20;99.90
42479;DHT22;28110;47.080;9.476;2023-01-29T07:19:23;-1.20;99.90
42479;DHT22;28110;47.080;9.476;2023-01-29T07:21:49;-1.20;99.90
42479;DHT22;28110;47.080;9.476;2023-01-29T07:24:14;-1.30;99.90
42479;DHT22;28110;47.080;9.476;2023-01-29T07:26:40;-1.40;99.90
42479;DHT22;28110;47.080;9.476;2023-01-29T07:29:06;-1.30;99.90
42479;DHT22;28110;47.080;9.476;2023-01-29T07:31:32;-1.40;99.90
42479;DHT22;28110;47.080;9.476;2023-01-29T07:33:57;-1.30;99.90
42479;DHT22;28110;47.080;9.476;2023-01-29T07:36:23;-1.30;99.90
42479;DHT22;28110;47.080;9.476;2023-01-29T07:38:49;-1.30;99.90
42479;DHT22;28110;47.080;9.476;2023-01-29T07:41:15;-1.30;99.90
42479;DHT22;28110;47.080;9.476;2023-01-29T07:43:40;-1.30;99.90
42479;DHT22;28110;47.080;9.476;2023-01-29T07:46:06;-1.30;99.90
42479;DHT22;28110;47.080;9.476;2023-01-29T07:48:31;-1.40;99.90
42479;DHT22;28110;47.080;9.476;2023-01-29T07:50:57;-1.30;99.90
42479;DHT22;28110;47.080;9.476;2023-01-29T07:53:23;-1.30;99.90
42479;DHT22;28110;47.080;9.476;2023-01-29T07:55:49;-1.40;99.90
42479;DHT22;28110;47.080;9.476;2023-01-29T07:58:15;-1.40;99.90
42479;DHT22;28110;47.080;9.476;2023-01-29T08:00:40;-1.40;99.90
42479;DHT22;28110;47.080;9.476;2023-01-29T08:03:10;-1.40;99.90
42479;DHT22;28110;47.080;9.476;2023-01-29T08:05:36;-1.40;99.90
42479;DHT22;28110;47.080;9.476;2023-01-29T08:08:01;-1.40;99.90
42479;DHT22;28110;47.080;9.476;2023-01-29T08:10:27;-1.50;99.90
42479;DHT22;28110;47.080;9.476;2023-01-29T08:12:55;-1.30;99.90
42479;DHT22;28110;47.080;9.476;2023-01-29T08:15:20;-1.30;99.90
42479;DHT22;28110;47.080;9.476;2023-01-29T08:17:46;-1.20;99.90
42479;DHT22;28110;47.080;9.476;2023-01-29T08:20:11;-1.20;99.90
42479;DHT22;28110;47.080;9.476;2023-01-29T08:22:37;-1.10;99.90
42479;DHT22;28110;47.080;9.476;2023-01-29T08:25:02;-1.00;99.90
42479;DHT22;28110;47.080;9.476;2023-01-29T08:27:29;-1.00;99.90
42479;DHT22;28110;47.080;9.476;2023-01-29T08:29:54;-0.80;99.90
42479;DHT22;28110;47.080;9.476;2023-01-29T08:32:20;-0.70;99.90
42479;DHT22;28110;47.080;9.476;2023-01-29T08:34:46;-0.60;99.90
42479;DHT22;28110;47.080;9.476;2023-01-29T08:37:11;-0.60;99.90
42479;DHT22;28110;47.080;9.476;2023-01-29T08:39:37;-0.50;99.90
42479;DHT22;28110;47.080;9.476;2023-01-29T08:42:02;-0.50;99.90
42479;DHT22;28110;47.080;9.476;2023-01-29T08:44:28;-0.40;99.90
42479;DHT22;28110;47.080;9.476;2023-01-29T08:46:53;-0.40;99.90
42479;DHT22;28110;47.080;9.476;2023-01-29T08:49:19;-0.40;99.90
42479;DHT22;28110;47.080;9.476;2023-01-29T08:51:44;-0.40;99.90
42479;DHT22;28110;47.080;9.476;2023-01-29T08:54:10;-0.40;99.90
42479;DHT22;28110;47.080;9.476;2023-01-29T08:56:35;-0.40;99.90
42479;DHT22;28110;47.080;9.476;2023-01-29T08:59:01;-0.30;99.90
42479;DHT22;28110;47.080;9.476;2023-01-29T09:01:26;-0.30;99.90
42479;DHT22;28110;47.080;9.476;2023-01-29T09:03:52;-0.30;99.90
42479;DHT22;28110;47.080;9.476;2023-01-29T09:06:17;-0.20;99.90
42479;DHT22;28110;47.080;9.476;2023-01-29T09:08:44;-0.20;99.90
42479;DHT22;28110;47.080;9.476;2023-01-29T09:11:10;-0.10;99.90
42479;DHT22;28110;47.080;9.476;2023-01-29T09:13:35;-0.10;99.90
42479;DHT22;28110;47.080;9.476;2023-01-29T09:16:02;0.00;99.90
42479;DHT22;28110;47.080;9.476;2023-01-29T09:18:29;0.10;99.90
42479;DHT22;28110;47.080;9.476;2023-01-29T09:20:55;0.10;99.90
42479;DHT22;28110;47.080;9.476;2023-01-29T09:23:20;0.20;99.90
42479;DHT22;28110;47.080;9.476;2023-01-29T09:25:46;0.20;99.90
42479;DHT22;28110;47.080;9.476;2023-01-29T09:28:12;0.30;99.90
42479;DHT22;28110;47.080;9.476;2023-01-29T09:30:37;0.30;99.90
42479;DHT22;28110;47.080;9.476;2023-01-29T09:33:04;0.40;99.90
42479;DHT22;28110;47.080;9.476;2023-01-29T09:35:30;0.50;99.90
42479;DHT22;28110;47.080;9.476;2023-01-29T09:37:56;0.60;99.90
42479;DHT22;28110;47.080;9.476;2023-01-29T09:43:50;0.60;99.90
42479;DHT22;28110;47.080;9.476;2023-01-29T09:46:22;0.60;99.90
42479;DHT22;28110;47.080;9.476;2023-01-29T09:49:06;0.60;99.90
42479;DHT22;28110;47.080;9.476;2023-01-29T09:51:45;0.70;99.90
42479;DHT22;28110;47.080;9.476;2023-01-29T09:54:27;0.80;99.90
42479;DHT22;28110;47.080;9.476;2023-01-29T09:56:55;1.00;99.90
42479;DHT22;28110;47.080;9.476;2023-01-29T09:59:23;1.10;99.90
42479;DHT22;28110;47.080;9.476;2023-01-29T10:02:20;1.10;99.90
42479;DHT22;28110;47.080;9.476;2023-01-29T10:05:16;1.30;99.90
42479;DHT22;28110;47.080;9.476;2023-01-29T10:07:59;1.40;99.90
42479;DHT22;28110;47.080;9.476;2023-01-29T10:13:28;1.50;99.90
42479;DHT22;28110;47.080;9.476;2023-01-29T10:16:14;1.50;99.90
42479;DHT22;28110;47.080;9.476;2023-01-29T10:19:05;1.60;99.90
42479;DHT22;28110;47.080;9.476;2023-01-29T10:21:40;1.70;99.90
42479;DHT22;28110;47.080;9.476;2023-01-29T10:24:33;1.70;99.90
42479;DHT22;28110;47.080;9.476;2023-01-29T10:27:02;1.70;99.90
42479;DHT22;28110;47.080;9.476;2023-01-29T10:29:29;1.70;99.90
42479;DHT22;28110;47.080;9.476;2023-01-29T10:31:57;1.80;99.90
42479;DHT22;28110;47.080;9.476;2023-01-29T10:34:34;1.80;99.90
42479;DHT22;28110;47.080;9.476;2023-01-29T10:37:18;1.80;99.90
42479;DHT22;28110;47.080;9.476;2023-01-29T10:39:47;1.90;99.90
42479;DHT22;28110;47.080;9.476;2023-01-29T10:53:15;1.90;99.90
42479;DHT22;28110;47.080;9.476;2023-01-29T11:00:57;1.90;99.90
42479;DHT22;28110;47.080;9.476;2023-01-29T11:03:28;1.90;99.90
42479;DHT22;28110;47.080;9.476;2023-01-29T11:08:30;1.90;99.90
42479;DHT22;28110;47.080;9.476;2023-01-29T11:11:15;1.90;99.90
42479;DHT22;28110;47.080;9.476;2023-01-29T11:13:49;1.80;99.90
42479;DHT22;28110;47.080;9.476;2023-01-29T11:16:16;1.80;99.90
42479;DHT22;28110;47.080;9.476;2023-01-29T11:19:11;1.90;99.90
42479;DHT22;28110;47.080;9.476;2023-01-29T11:21:57;1.90;99.90
42479;DHT22;28110;47.080;9.476;2023-01-29T11:24:23;2.00;99.90
42479;DHT22;28110;47.080;9.476;2023-01-29T11:26:51;2.00;99.90
42479;DHT22;28110;47.080;9.476;2023-01-29T11:31:58;2.10;99.90
42479;DHT22;28110;47.080;9.476;2023-01-29T11:34:24;2.10;99.90
42479;DHT22;28110;47.080;9.476;2023-01-29T11:37:03;2.10;99.90
42479;DHT22;28110;47.080;9.476;2023-01-29T11:39:42;2.10;99.90
42479;DHT22;28110;47.080;9.476;2023-01-29T11:42:21;2.20;99.90
42479;DHT22;28110;47.080;9.476;2023-01-29T11:44:47;2.20;99.90
42479;DHT22;28110;47.080;9.476;2023-01-29T11:47:19;2.30;99.90
42479;DHT22;28110;47.080;9.476;2023-01-29T11:49:48;2.30;99.90
42479;DHT22;28110;47.080;9.476;2023-01-29T11:52:16;2.40;99.90
42479;DHT22;28110;47.080;9.476;2023-01-29T11:54:49;2.40;99.90
42479;DHT22;28110;47.080;9.476;2023-01-29T11:57:26;2.40;99.90
42479;DHT22;28110;47.080;9.476;2023-01-29T11:59:54;2.40;99.90
42479;DHT22;28110;47.080;9.476;2023-01-29T12:02:34;2.50;99.90
42479;DHT22;28110;47.080;9.476;2023-01-29T12:05:22;2.50;99.90
42479;DHT22;28110;47.080;9.476;2023-01-29T12:07:50;2.50;99.90
42479;DHT22;28110;47.080;9.476;2023-01-29T12:10:39;2.50;99.90
42479;DHT22;28110;47.080;9.476;2023-01-29T12:15:41;2.40;99.90
42479;DHT22;28110;47.080;9.476;2023-01-29T12:20:55;2.50;99.90
42479;DHT22;28110;47.080;9.476;2023-01-29T12:23:31;2.50;99.90
42479;DHT22;28110;47.080;9.476;2023-01-29T12:26:10;2.50;99.90
42479;DHT22;28110;47.080;9.476;2023-01-29T12:31:39;2.40;99.90
42479;DHT22;28110;47.080;9.476;2023-01-29T12:34:26;2.40;99.90
42479;DHT22;28110;47.080;9.476;2023-01-29T12:39:55;2.40;99.90
42479;DHT22;28110;47.080;9.476;2023-01-29T12:42:22;2.40;99.90
42479;DHT22;28110;47.080;9.476;2023-01-29T12:44:58;2.40;99.90
42479;DHT22;28110;47.080;9.476;2023-01-29T12:47:35;2.50;99.90
42479;DHT22;28110;47.080;9.476;2023-01-29T12:50:22;2.50;99.90
42479;DHT22;28110;47.080;9.476;2023-01-29T12:58:32;2.50;99.90
42479;DHT22;28110;47.080;9.476;2023-01-29T13:01:05;2.50;99.90
42479;DHT22;28110;47.080;9.476;2023-01-29T13:04:00;2.50;99.90
42479;DHT22;28110;47.080;9.476;2023-01-29T13:06:30;2.50;99.90
42479;DHT22;28110;47.080;9.476;2023-01-29T13:09:02;2.50;99.90
42479;DHT22;28110;47.080;9.476;2023-01-29T13:11:49;2.60;99.90
42479;DHT22;28110;47.080;9.476;2023-01-29T13:14:23;2.60;99.90
42479;DHT22;28110;47.080;9.476;2023-01-29T13:16:56;2.60;99.90
42479;DHT22;28110;47.080;9.476;2023-01-29T13:19:32;2.60;99.90
42479;DHT22;28110;47.080;9.476;2023-01-29T13:22:01;2.60;99.90
42479;DHT22;28110;47.080;9.476;2023-01-29T13:24:38;2.60;99.90
42479;DHT22;28110;47.080;9.476;2023-01-29T13:27:04;2.60;99.90
42479;DHT22;28110;47.080;9.476;2023-01-29T13:29:31;2.60;99.90
42479;DHT22;28110;47.080;9.476;2023-01-29T13:32:02;2.60;99.90
42479;DHT22;28110;47.080;9.476;2023-01-29T13:34:34;2.70;99.90
42479;DHT22;28110;47.080;9.476;2023-01-29T13:37:08;2.70;99.90
42479;DHT22;28110;47.080;9.476;2023-01-29T13:39:46;2.70;99.90
42479;DHT22;28110;47.080;9.476;2023-01-29T13:42:16;2.70;99.90
42479;DHT22;28110;47.080;9.476;2023-01-29T13:44:48;2.70;99.90
42479;DHT22;28110;47.080;9.476;2023-01-29T13:47:28;2.70;99.90
42479;DHT22;28110;47.080;9.476;2023-01-29T13:50:27;2.70;99.90
42479;DHT22;28110;47.080;9.476;2023-01-29T13:53:00;2.70;99.90
42479;DHT22;28110;47.080;9.476;2023-01-29T13:55:30;2.70;99.90
42479;DHT22;28110;47.080;9.476;2023-01-29T13:57:58;2.70;99.90
42479;DHT22;28110;47.080;9.476;2023-01-29T14:07:58;2.60;99.90
42479;DHT22;28110;47.080;9.476;2023-01-29T14:10:28;2.70;99.90
42479;DHT22;28110;47.080;9.476;2023-01-29T14:15:40;2.60;99.90
42479;DHT22;28110;47.080;9.476;2023-01-29T14:18:17;2.60;99.90
42479;DHT22;28110;47.080;9.476;2023-01-29T14:23:40;2.60;99.90
42479;DHT22;28110;47.080;9.476;2023-01-29T14:29:00;2.60;99.90
42479;DHT22;28110;47.080;9.476;2023-01-29T14:31:51;2.60;99.90
42479;DHT22;28110;47.080;9.476;2023-01-29T14:34:24;2.60;99.90
42479;DHT22;28110;47.080;9.476;2023-01-29T14:36:54;2.60;99.90
42479;DHT22;28110;47.080;9.476;2023-01-29T14:39:40;2.60;99.90
42479;DHT22;28110;47.080;9.476;2023-01-29T14:49:59;2.60;99.90
42479;DHT22;28110;47.080;9.476;2023-01-29T14:52:31;2.60;99.90
42479;DHT22;28110;47.080;9.476;2023-01-29T14:55:03;2.50;99.90
42479;DHT22;28110;47.080;9.476;2023-01-29T14:57:29;2.50;99.90
42479;DHT22;28110;47.080;9.476;2023-01-29T14:59:59;2.50;99.90
42479;DHT22;28110;47.080;9.476;2023-01-29T15:02:27;2.50;99.90
42479;DHT22;28110;47.080;9.476;2023-01-29T15:05:02;2.40;99.90
42479;DHT22;28110;47.080;9.476;2023-01-29T15:07:36;2.40;99.90
42479;DHT22;28110;47.080;9.476;2023-01-29T15:10:19;2.40;99.90
42479;DHT22;28110;47.080;9.476;2023-01-29T15:18:19;2.50;99.90
42479;DHT22;28110;47.080;9.476;2023-01-29T15:21:01;2.40;99.90
42479;DHT22;28110;47.080;9.476;2023-01-29T15:23:31;2.50;99.90
42479;DHT22;28110;47.080;9.476;2023-01-29T15:26:04;2.40;99.90
42479;DHT22;28110;47.080;9.476;2023-01-29T15:28:31;2.50;99.90
42479;DHT22;28110;47.080;9.476;2023-01-29T15:30:59;2.50;99.90
42479;DHT22;28110;47.080;9.476;2023-01-29T15:33:26;2.50;99.90
42479;DHT22;28110;47.080;9.476;2023-01-29T15:36:00;2.50;99.90
42479;DHT22;28110;47.080;9.476;2023-01-29T15:38:27;2.50;99.90
42479;DHT22;28110;47.080;9.476;2023-01-29T15:43:26;2.40;99.90
42479;DHT22;28110;47.080;9.476;2023-01-29T15:46:35;2.40;99.90
42479;DHT22;28110;47.080;9.476;2023-01-29T15:48:44;2.40;99.90
42479;DHT22;28110;47.080;9.476;2023-01-29T15:51:15;2.30;99.90
42479;DHT22;28110;47.080;9.476;2023-01-29T15:53:45;2.40;99.90
42479;DHT22;28110;47.080;9.476;2023-01-29T15:56:20;2.30;99.90
42479;DHT22;28110;47.080;9.476;2023-01-29T15:58:48;2.30;99.90
42479;DHT22;28110;47.080;9.476;2023-01-29T16:01:15;2.30;99.90
42479;DHT22;28110;47.080;9.476;2023-01-29T16:03:41;2.30;99.90
42479;DHT22;28110;47.080;9.476;2023-01-29T16:06:08;2.30;99.90
42479;DHT22;28110;47.080;9.476;2023-01-29T16:08:34;2.30;99.90
42479;DHT22;28110;47.080;9.476;2023-01-29T16:11:02;2.30;99.90
42479;DHT22;28110;47.080;9.476;2023-01-29T16:13:31;2.30;99.90
42479;DHT22;28110;47.080;9.476;2023-01-29T16:16:20;2.20;99.90
42479;DHT22;28110;47.080;9.476;2023-01-29T16:18:47;2.20;99.90
42479;DHT22;28110;47.080;9.476;2023-01-29T16:23:57;2.10;99.90
42479;DHT22;28110;47.080;9.476;2023-01-29T16:26:35;2.00;99.90
42479;DHT22;28110;47.080;9.476;2023-01-29T16:29:07;2.00;99.90
42479;DHT22;28110;47.080;9.476;2023-01-29T16:31:34;1.80;99.90
42479;DHT22;28110;47.080;9.476;2023-01-29T16:34:18;1.80;99.90
42479;DHT22;28110;47.080;9.476;2023-01-29T16:36:47;1.70;99.90
42479;DHT22;28110;47.080;9.476;2023-01-29T16:39:20;1.60;99.90
42479;DHT22;28110;47.080;9.476;2023-01-29T16:52:56;1.30;99.90
42479;DHT22;28110;47.080;9.476;2023-01-29T16:55:25;1.30;99.90
42479;DHT22;28110;47.080;9.476;2023-01-29T16:57:56;1.20;99.90
42479;DHT22;28110;47.080;9.476;2023-01-29T17:00:27;1.10;99.90
42479;DHT22;28110;47.080;9.476;2023-01-29T17:02:58;1.10;99.90
42479;DHT22;28110;47.080;9.476;2023-01-29T17:05:28;1.10;99.90
42479;DHT22;28110;47.080;9.476;2023-01-29T17:07:57;1.00;99.90
42479;DHT22;28110;47.080;9.476;2023-01-29T17:10:25;0.90;99.90
42479;DHT22;28110;47.080;9.476;2023-01-29T17:13:04;0.90;99.90
42479;DHT22;28110;47.080;9.476;2023-01-29T17:15:45;0.90;99.90
42479;DHT22;28110;47.080;9.476;2023-01-29T17:18:18;0.90;99.90
42479;DHT22;28110;47.080;9.476;2023-01-29T17:20:44;0.80;99.90
42479;DHT22;28110;47.080;9.476;2023-01-29T17:23:10;0.80;99.90
42479;DHT22;28110;47.080;9.476;2023-01-29T17:25:35;0.80;99.90
42479;DHT22;28110;47.080;9.476;2023-01-29T17:28:02;0.80;99.90
42479;DHT22;28110;47.080;9.476;2023-01-29T17:30:30;0.80;99.90
42479;DHT22;28110;47.080;9.476;2023-01-29T17:32:58;0.80;99.90
42479;DHT22;28110;47.080;9.476;2023-01-29T17:35:23;0.80;99.90
42479;DHT22;28110;47.080;9.476;2023-01-29T17:37:49;0.80;99.90
42479;DHT22;28110;47.080;9.476;2023-01-29T17:40:35;0.70;99.90
42479;DHT22;28110;47.080;9.476;2023-01-29T17:43:02;0.60;99.90
42479;DHT22;28110;47.080;9.476;2023-01-29T17:45:27;0.50;99.90
42479;DHT22;28110;47.080;9.476;2023-01-29T17:47:53;0.40;99.90
42479;DHT22;28110;47.080;9.476;2023-01-29T17:50:26;0.40;99.90
42479;DHT22;28110;47.080;9.476;2023-01-29T17:52:53;0.30;99.90
42479;DHT22;28110;47.080;9.476;2023-01-29T17:55:19;0.30;99.90
42479;DHT22;28110;47.080;9.476;2023-01-29T17:57:45;0.30;99.90
42479;DHT22;28110;47.080;9.476;2023-01-29T18:00:16;0.20;99.90
42479;DHT22;28110;47.080;9.476;2023-01-29T18:02:43;0.20;99.90
42479;DHT22;28110;47.080;9.476;2023-01-29T18:05:09;0.10;99.90
42479;DHT22;28110;47.080;9.476;2023-01-29T18:07:36;0.10;99.90
42479;DHT22;28110;47.080;9.476;2023-01-29T18:10:02;0.10;99.90
42479;DHT22;28110;47.080;9.476;2023-01-29T18:12:28;0.10;99.90
42479;DHT22;28110;47.080;9.476;2023-01-29T18:14:53;0.00;99.90
42479;DHT22;28110;47.080;9.476;2023-01-29T18:17:19;0.00;99.90
42479;DHT22;28110;47.080;9.476;2023-01-29T18:19:47;0.00;99.90
42479;DHT22;28110;47.080;9.476;2023-01-29T18:22:12;0.00;99.90
42479;DHT22;28110;47.080;9.476;2023-01-29T18:24:38;0.00;99.90
42479;DHT22;28110;47.080;9.476;2023-01-29T18:27:04;0.00;99.90
42479;DHT22;28110;47.080;9.476;2023-01-29T18:29:29;0.00;99.90
42479;DHT22;28110;47.080;9.476;2023-01-29T18:31:55;0.00;99.90
42479;DHT22;28110;47.080;9.476;2023-01-29T18:34:21;0.00;99.90
42479;DHT22;28110;47.080;9.476;2023-01-29T18:36:46;0.00;99.90